Time;durP1;ratioP1;P1;durP2;ratioP2;P2;SDS_P1;SDS_P2;PMS_P1;PMS_P2;Temp;Humidity;BMP_temperature;BMP_pressure;BME280_temperature;BME280_humidity;BME280_pressure;Samples;Min_cycle;Max_cycle;Signal;HPM_P1;HPM_P2
2024/01/07 00:02:00;;;;;;;24.15;11.68;;;;;;;;;;5105079;28;20047;-61
2024/01/07 00:04:27;;;;;;;21.58;11.75;;;;;;;;;;5109975;28;20028;-64
2024/01/07 00:06:54;;;;;;;18.80;11.48;;;;;;;;;;5114045;28;20323;-58
2024/01/07 00:09:20;;;;;;;20.48;11.93;;;;;;;;;;5111336;28;20024;-67
2024/01/07 00:11:47;;;;;;;25.10;12.00;;;;;;;;;;5115052;28;20083;-66
2024/01/07 00:14:16;;;;;;;22.60;12.60;;;;;;;;;;5104030;28;20022;-61
2024/01/07 00:16:43;;;;;;;18.05;11.48;;;;;;;;;;5114033;28;20027;-61
2024/01/07 00:19:09;;;;;;;16.25;11.30;;;;;;;;;;5115917;28;20030;-62
2024/01/07 00:21:36;;;;;;;20.25;11.90;;;;;;;;;;5122644;28;20338;-59
2024/01/07 00:24:02;;;;;;;20.70;11.75;;;;;;;;;;5103047;28;20319;-60
2024/01/07 00:26:29;;;;;;;19.33;11.60;;;;;;;;;;5105112;28;20024;-60
2024/01/07 00:28:56;;;;;;;23.75;11.82;;;;;;;;;;5104764;28;20016;-60
2024/01/07 00:31:22;;;;;;;23.13;11.45;;;;;;;;;;5105228;28;20091;-60
2024/01/07 00:33:49;;;;;;;18.63;11.52;;;;;;;;;;5105235;28;20020;-62
2024/01/07 00:36:15;;;;;;;54.92;12.77;;;;;;;;;;5104961;28;20016;-58
2024/01/07 00:38:42;;;;;;;25.60;12.70;;;;;;;;;;5105112;28;20024;-60
2024/01/07 00:41:08;;;;;;;23.85;12.35;;;;;;;;;;5105032;28;20016;-59
2024/01/07 00:43:35;;;;;;;23.20;11.80;;;;;;;;;;5105221;28;20020;-63
2024/01/07 00:46:02;;;;;;;23.17;11.57;;;;;;;;;;5106654;28;20250;-59
2024/01/07 00:48:28;;;;;;;40.72;11.95;;;;;;;;;;5106583;28;20020;-60
2024/01/07 00:50:55;;;;;;;25.98;11.82;;;;;;;;;;5106371;28;20023;-59
2024/01/07 00:53:21;;;;;;;25.35;11.75;;;;;;;;;;5106587;28;20057;-60
2024/01/07 00:55:48;;;;;;;25.83;11.73;;;;;;;;;;5106595;28;20042;-61
2024/01/07 00:58:15;;;;;;;16.65;10.75;;;;;;;;;;5106826;28;20089;-60
2024/01/07 01:00:41;;;;;;;21.60;11.25;;;;;;;;;;5106472;28;20019;-60
2024/01/07 01:03:08;;;;;;;18.67;10.98;;;;;;;;;;5106284;28;20024;-61
2024/01/07 01:05:36;;;;;;;25.30;11.52;;;;;;;;;;5104979;28;20031;-60
2024/01/07 01:08:02;;;;;;;24.13;11.77;;;;;;;;;;5105145;28;20044;-60
2024/01/07 01:10:29;;;;;;;24.92;11.23;;;;;;;;;;5106311;28;20023;-60
2024/01/07 01:12:55;;;;;;;19.88;10.80;;;;;;;;;;5106494;28;20024;-59
2024/01/07 01:15:22;;;;;;;20.95;11.25;;;;;;;;;;5104979;28;20319;-60
2024/01/07 01:17:49;;;;;;;22.73;11.55;;;;;;;;;;5106424;28;20035;-59
2024/01/07 01:20:15;;;;;;;34.50;12.75;;;;;;;;;;5109292;28;20015;-59
2024/01/07 01:22:42;;;;;;;26.90;12.15;;;;;;;;;;5122089;27;20029;-60
2024/01/07 01:25:10;;;;;;;25.90;11.85;;;;;;;;;;5124520;28;20030;-59
2024/01/07 01:27:36;;;;;;;27.17;11.85;;;;;;;;;;5116215;28;20252;-59
2024/01/07 01:30:03;;;;;;;23.35;11.80;;;;;;;;;;5123894;28;20070;-58
2024/01/07 01:32:29;;;;;;;22.00;11.68;;;;;;;;;;5118392;28;20023;-59
2024/01/07 01:34:56;;;;;;;25.92;11.85;;;;;;;;;;5126147;28;20016;-59
2024/01/07 01:37:22;;;;;;;26.30;12.38;;;;;;;;;;5126360;28;20077;-60
2024/01/07 01:39:49;;;;;;;25.55;11.77;;;;;;;;;;5124953;28;20331;-50
2024/01/07 01:42:16;;;;;;;38.50;12.57;;;;;;;;;;5116207;28;20023;-60
2024/01/07 01:44:42;;;;;;;40.58;11.85;;;;;;;;;;5125996;28;20082;-59
2024/01/07 01:47:11;;;;;;;27.88;12.20;;;;;;;;;;5114050;28;20031;-59
2024/01/07 01:49:38;;;;;;;30.48;12.40;;;;;;;;;;5105765;28;20046;-56
2024/01/07 01:52:05;;;;;;;24.48;11.57;;;;;;;;;;5106077;28;20016;-58
2024/01/07 01:54:32;;;;;;;32.75;12.73;;;;;;;;;;5105490;28;20043;-58
2024/01/07 01:56:58;;;;;;;26.48;11.95;;;;;;;;;;5105490;28;20381;-61
2024/01/07 01:59:26;;;;;;;41.45;14.02;;;;;;;;;;5119004;28;20023;-56
2024/01/07 02:01:53;;;;;;;33.80;13.23;;;;;;;;;;5123210;28;20031;-55
2024/01/07 02:04:19;;;;;;;52.47;14.52;;;;;;;;;;5112647;28;20039;-64
2024/01/07 02:06:46;;;;;;;44.97;13.85;;;;;;;;;;5114480;28;20026;-63
2024/01/07 02:09:13;;;;;;;76.63;16.33;;;;;;;;;;5110349;28;20383;-60
2024/01/07 02:11:39;;;;;;;51.50;13.30;;;;;;;;;;5115845;28;20035;-57
2024/01/07 02:14:06;;;;;;;44.97;13.23;;;;;;;;;;5115325;28;20022;-61
2024/01/07 02:16:33;;;;;;;27.00;12.77;;;;;;;;;;5118986;28;20065;-63
2024/01/07 02:18:59;;;;;;;30.33;13.30;;;;;;;;;;5113443;28;20016;-62
2024/01/07 02:21:26;;;;;;;28.02;12.73;;;;;;;;;;5118181;28;20043;-62
2024/01/07 02:23:52;;;;;;;24.35;12.25;;;;;;;;;;5119626;28;20253;-61
2024/01/07 02:26:19;;;;;;;28.42;12.80;;;;;;;;;;5116423;28;20177;-59
2024/01/07 02:28:46;;;;;;;21.90;11.93;;;;;;;;;;5121555;28;20050;-61
2024/01/07 02:31:12;;;;;;;17.52;11.77;;;;;;;;;;5124343;28;20223;-58
2024/01/07 02:33:39;;;;;;;21.67;12.43;;;;;;;;;;5114119;28;20024;-57
2024/01/07 02:36:05;;;;;;;27.95;13.27;;;;;;;;;;5121751;28;20011;-62
2024/01/07 02:38:32;;;;;;;25.88;13.70;;;;;;;;;;5125502;28;20335;-59
2024/01/07 02:40:59;;;;;;;23.17;12.85;;;;;;;;;;5117717;28;20090;-54
2024/01/07 02:43:25;;;;;;;25.73;13.60;;;;;;;;;;5109975;28;20015;-64
2024/01/07 02:45:52;;;;;;;19.80;12.90;;;;;;;;;;5116912;28;20031;-57
2024/01/07 02:48:18;;;;;;;17.38;13.32;;;;;;;;;;5124336;28;20030;-54
2024/01/07 02:50:45;;;;;;;23.10;12.60;;;;;;;;;;5121850;28;20628;-64
2024/01/07 02:53:12;;;;;;;19.10;11.85;;;;;;;;;;5114120;28;20295;-60
2024/01/07 02:55:38;;;;;;;24.13;12.50;;;;;;;;;;5113535;28;20022;-60
2024/01/07 02:58:05;;;;;;;15.55;11.65;;;;;;;;;;5107359;28;20023;-66
2024/01/07 03:00:31;;;;;;;17.17;12.20;;;;;;;;;;5114411;28;20039;-57
2024/01/07 03:02:58;;;;;;;15.82;11.48;;;;;;;;;;5115512;28;20093;-60
2024/01/07 03:05:25;;;;;;;15.70;11.90;;;;;;;;;;5108772;28;20073;-55
2024/01/07 03:07:52;;;;;;;14.75;11.25;;;;;;;;;;5123525;28;20064;-52
2024/01/07 03:10:18;;;;;;;14.18;10.60;;;;;;;;;;5117477;28;20039;-57
2024/01/07 03:12:45;;;;;;;17.75;11.70;;;;;;;;;;5122559;28;20028;-61
2024/01/07 03:15:12;;;;;;;16.50;11.32;;;;;;;;;;5122257;28;20008;-56
2024/01/07 03:17:38;;;;;;;20.60;11.32;;;;;;;;;;5124250;28;20057;-56
2024/01/07 03:20:05;;;;;;;16.27;11.02;;;;;;;;;;5122534;28;20027;-59
2024/01/07 03:22:32;;;;;;;16.83;10.75;;;;;;;;;;5122208;28;20027;-55
2024/01/07 03:24:58;;;;;;;13.25;10.75;;;;;;;;;;5122109;28;20019;-61
2024/01/07 03:27:25;;;;;;;16.98;10.60;;;;;;;;;;5122239;28;20043;-57
2024/01/07 03:29:52;;;;;;;16.33;10.85;;;;;;;;;;5122092;28;20211;-57
2024/01/07 03:32:18;;;;;;;14.13;10.52;;;;;;;;;;5122285;28;20042;-62
2024/01/07 03:34:45;;;;;;;17.20;10.98;;;;;;;;;;5122357;28;20382;-58
2024/01/07 03:37:11;;;;;;;13.73;10.18;;;;;;;;;;5124374;28;20088;-60
2024/01/07 03:39:38;;;;;;;15.05;10.27;;;;;;;;;;5124022;28;20030;-56
2024/01/07 03:42:11;;;;;;;21.80;10.52;;;;;;;;;;5124288;28;20072;-58
2024/01/07 03:44:38;;;;;;;19.50;10.90;;;;;;;;;;5124099;28;20015;-56
2024/01/07 03:47:05;;;;;;;17.63;10.05;;;;;;;;;;5124027;28;20050;-61
2024/01/07 03:49:32;;;;;;;19.17;10.48;;;;;;;;;;5124039;28;20019;-66
2024/01/07 03:51:58;;;;;;;13.85;10.00;;;;;;;;;;5124221;28;20330;-57
2024/01/07 03:54:25;;;;;;;14.48;10.23;;;;;;;;;;5124210;28;20024;-56
2024/01/07 03:56:51;;;;;;;14.27;9.85;;;;;;;;;;5124052;28;20023;-58
2024/01/07 03:59:18;;;;;;;12.93;9.23;;;;;;;;;;5125081;28;20024;-59
2024/01/07 04:01:45;;;;;;;14.30;9.18;;;;;;;;;;5128276;28;20035;-56
2024/01/07 04:04:14;;;;;;;14.32;9.93;;;;;;;;;;5129234;28;20020;-57
2024/01/07 04:06:41;;;;;;;12.68;9.32;;;;;;;;;;5126890;28;20077;-57
2024/01/07 04:09:08;;;;;;;14.95;9.95;;;;;;;;;;5128133;28;20043;-58
2024/01/07 04:11:40;;;;;;;13.85;9.60;;;;;;;;;;5127706;28;20026;-57
2024/01/07 04:14:06;;;;;;;;;;;;;;;;;;5128098;28;20034;-58
2024/01/07 04:16:33;;;;;;;12.23;9.98;;;;;;;;;;5127922;28;19908;-60
2024/01/07 04:19:00;;;;;;;15.88;10.48;;;;;;;;;;5128062;28;20012;-59
2024/01/07 04:21:26;;;;;;;13.43;9.57;;;;;;;;;;5128444;28;20019;-57
2024/01/07 04:23:53;;;;;;;14.18;9.48;;;;;;;;;;5128137;28;20023;-58
2024/01/07 04:26:20;;;;;;;13.40;9.20;;;;;;;;;;5127800;27;20028;-55
2024/01/07 04:28:46;;;;;;;14.43;9.45;;;;;;;;;;5127386;28;20043;-57
2024/01/07 04:31:13;;;;;;;12.85;9.50;;;;;;;;;;5127600;28;20269;-62
2024/01/07 04:33:40;;;;;;;11.13;9.48;;;;;;;;;;5127456;28;20046;-59
2024/01/07 04:36:06;;;;;;;15.45;9.60;;;;;;;;;;5127454;28;20018;-57
2024/01/07 04:38:33;;;;;;;11.15;9.15;;;;;;;;;;5127771;28;20027;-57
2024/01/07 04:41:00;;;;;;;10.23;9.07;;;;;;;;;;5127032;28;20069;-61
2024/01/07 04:43:26;;;;;;;9.98;8.90;;;;;;;;;;5127120;28;20046;-60
2024/01/07 04:45:53;;;;;;;10.57;8.82;;;;;;;;;;5127252;28;20024;-56
2024/01/07 04:48:19;;;;;;;12.50;9.57;;;;;;;;;;5127600;28;20061;-58
2024/01/07 04:50:46;;;;;;;10.73;8.73;;;;;;;;;;5127473;28;20074;-55
2024/01/07 04:53:13;;;;;;;11.63;8.98;;;;;;;;;;5127346;28;20026;-58
2024/01/07 04:55:39;;;;;;;11.15;8.85;;;;;;;;;;5126802;27;20035;-55
2024/01/07 04:58:06;;;;;;;10.93;8.85;;;;;;;;;;5127372;28;20075;-58
2024/01/07 05:00:32;;;;;;;13.10;9.48;;;;;;;;;;5126769;28;20035;-56
2024/01/07 05:02:59;;;;;;;13.82;9.10;;;;;;;;;;5128455;27;20068;-57
2024/01/07 05:05:26;;;;;;;14.52;9.07;;;;;;;;;;5136674;27;20370;-56
2024/01/07 05:07:52;;;;;;;13.10;9.15;;;;;;;;;;5127600;27;20030;-57
2024/01/07 05:10:19;;;;;;;10.80;8.70;;;;;;;;;;5123745;28;20366;-58
2024/01/07 05:12:45;;;;;;;13.80;8.75;;;;;;;;;;5124055;28;20015;-62
2024/01/07 05:15:12;;;;;;;10.55;8.18;;;;;;;;;;5125654;28;20385;-60
2024/01/07 05:17:39;;;;;;;9.25;8.23;;;;;;;;;;5125164;28;20079;-59
2024/01/07 05:20:06;;;;;;;12.65;8.57;;;;;;;;;;5127043;28;20312;-56
2024/01/07 05:22:33;;;;;;;10.25;8.20;;;;;;;;;;5125581;28;20315;-58
2024/01/07 05:25:01;;;;;;;11.68;7.95;;;;;;;;;;5126719;28;20084;-58
2024/01/07 05:27:28;;;;;;;10.43;8.10;;;;;;;;;;5126481;28;20051;-57
2024/01/07 05:29:55;;;;;;;9.07;7.97;;;;;;;;;;5127096;28;20053;-54
2024/01/07 05:32:22;;;;;;;9.45;7.28;;;;;;;;;;5125531;28;20031;-62
2024/01/07 05:34:48;;;;;;;11.32;7.53;;;;;;;;;;5126625;28;20027;-62
2024/01/07 05:37:15;;;;;;;11.30;7.57;;;;;;;;;;5126212;28;20075;-63
2024/01/07 05:39:41;;;;;;;8.68;7.22;;;;;;;;;;5126427;28;20047;-55
2024/01/07 05:42:08;;;;;;;11.35;7.32;;;;;;;;;;5126185;28;20019;-60
2024/01/07 05:44:35;;;;;;;9.57;7.20;;;;;;;;;;5126230;28;20031;-56
2024/01/07 05:47:01;;;;;;;10.57;7.05;;;;;;;;;;5125889;28;20023;-58
2024/01/07 05:49:28;;;;;;;8.77;7.28;;;;;;;;;;5126253;28;20020;-58
2024/01/07 05:51:54;;;;;;;8.00;7.20;;;;;;;;;;5124581;28;20019;-60
2024/01/07 05:54:22;;;;;;;12.93;6.97;;;;;;;;;;5126126;28;20027;-61
2024/01/07 05:56:49;;;;;;;8.48;7.47;;;;;;;;;;5125865;28;20061;-62
2024/01/07 05:59:15;;;;;;;9.25;7.40;;;;;;;;;;5125894;28;20027;-59
2024/01/07 06:01:42;;;;;;;9.90;7.47;;;;;;;;;;5125752;28;20028;-57
2024/01/07 06:04:09;;;;;;;9.98;7.75;;;;;;;;;;5125795;28;20038;-57
2024/01/07 06:06:36;;;;;;;9.48;7.00;;;;;;;;;;5125404;28;20019;-59
2024/01/07 06:09:02;;;;;;;8.93;7.30;;;;;;;;;;5125747;28;20027;-61
2024/01/07 06:11:29;;;;;;;8.90;7.20;;;;;;;;;;5125658;28;20011;-58
2024/01/07 06:13:55;;;;;;;13.32;7.30;;;;;;;;;;5125487;28;20042;-60
2024/01/07 06:16:22;;;;;;;11.25;7.25;;;;;;;;;;5125497;28;20015;-59
2024/01/07 06:18:48;;;;;;;9.32;7.07;;;;;;;;;;5125535;28;20031;-63
2024/01/07 06:21:15;;;;;;;8.52;7.30;;;;;;;;;;5125169;28;20019;-59
2024/01/07 06:23:42;;;;;;;8.32;6.78;;;;;;;;;;5124856;28;20040;-59
2024/01/07 06:26:09;;;;;;;9.95;7.25;;;;;;;;;;5125194;28;20019;-59
2024/01/07 06:28:35;;;;;;;10.38;7.07;;;;;;;;;;5125077;28;20047;-63
2024/01/07 06:31:05;;;;;;;9.75;7.50;;;;;;;;;;5125088;28;20118;-61
2024/01/07 06:33:31;;;;;;;7.57;6.78;;;;;;;;;;5125150;28;20023;-62
2024/01/07 06:35:58;;;;;;;12.93;7.15;;;;;;;;;;5125054;28;20071;-60
2024/01/07 06:38:24;;;;;;;8.30;7.15;;;;;;;;;;5125086;28;20410;-61
2024/01/07 06:40:51;;;;;;;7.63;6.90;;;;;;;;;;5124836;28;20046;-59
2024/01/07 06:43:18;;;;;;;9.07;7.00;;;;;;;;;;5125046;28;20035;-60
2024/01/07 06:45:45;;;;;;;7.68;6.60;;;;;;;;;;5124756;28;20015;-58
2024/01/07 06:48:11;;;;;;;8.20;7.40;;;;;;;;;;5124830;28;20019;-64
2024/01/07 06:50:38;;;;;;;8.00;6.85;;;;;;;;;;5124835;28;20311;-62
2024/01/07 06:53:04;;;;;;;8.95;6.75;;;;;;;;;;5124790;28;20015;-63
2024/01/07 06:55:31;;;;;;;8.85;6.88;;;;;;;;;;5124749;28;20016;-62
2024/01/07 06:57:58;;;;;;;12.48;7.57;;;;;;;;;;5124746;28;20061;-63
2024/01/07 07:00:24;;;;;;;8.93;7.00;;;;;;;;;;5124783;28;20315;-61
2024/01/07 07:02:51;;;;;;;11.77;7.40;;;;;;;;;;5124967;28;20035;-60
2024/01/07 07:05:17;;;;;;;14.15;7.80;;;;;;;;;;5125104;28;20027;-61
2024/01/07 07:07:45;;;;;;;9.68;7.38;;;;;;;;;;5124452;28;20023;-59
2024/01/07 07:10:11;;;;;;;10.63;6.88;;;;;;;;;;5125156;28;20049;-56
2024/01/07 07:12:38;;;;;;;8.85;6.63;;;;;;;;;;5124634;28;20018;-61
2024/01/07 07:15:05;;;;;;;9.90;6.50;;;;;;;;;;5124780;28;20027;-63
2024/01/07 07:17:31;;;;;;;9.15;6.93;;;;;;;;;;5124680;28;20083;-57
2024/01/07 07:19:58;;;;;;;9.35;6.68;;;;;;;;;;5124764;28;20019;-56
2024/01/07 07:22:24;;;;;;;9.23;7.03;;;;;;;;;;5124331;28;20024;-63
2024/01/07 07:24:51;;;;;;;8.88;6.85;;;;;;;;;;5124839;28;20023;-58
2024/01/07 07:27:18;;;;;;;8.85;6.78;;;;;;;;;;5124227;28;20227;-58
2024/01/07 07:29:44;;;;;;;8.95;6.55;;;;;;;;;;5124562;28;20028;-62
2024/01/07 07:32:11;;;;;;;6.82;6.13;;;;;;;;;;5124519;28;20015;-57
2024/01/07 07:34:38;;;;;;;9.90;6.90;;;;;;;;;;5127884;28;20027;-57
2024/01/07 07:37:04;;;;;;;10.15;6.68;;;;;;;;;;5128519;28;20011;-57
2024/01/07 07:39:31;;;;;;;9.43;6.38;;;;;;;;;;5128957;28;20059;-58
2024/01/07 07:41:57;;;;;;;8.25;6.50;;;;;;;;;;5128531;28;20197;-57
2024/01/07 07:44:24;;;;;;;8.57;6.60;;;;;;;;;;5128594;28;20027;-63
2024/01/07 07:46:51;;;;;;;7.93;6.47;;;;;;;;;;5128406;28;20050;-60
2024/01/07 07:49:17;;;;;;;8.52;6.32;;;;;;;;;;5128819;28;20024;-56
2024/01/07 07:51:44;;;;;;;20.48;7.60;;;;;;;;;;5127970;28;20020;-56
2024/01/07 07:54:11;;;;;;;17.85;6.90;;;;;;;;;;5123661;27;20035;-60
2024/01/07 07:56:37;;;;;;;14.55;6.72;;;;;;;;;;5117001;28;20212;-56
2024/01/07 07:59:04;;;;;;;14.73;6.97;;;;;;;;;;5126441;28;20204;-57
2024/01/07 08:01:30;;;;;;;8.13;6.25;;;;;;;;;;5126239;28;20188;-57
2024/01/07 08:03:57;;;;;;;11.82;6.65;;;;;;;;;;5126521;28;20105;-57
2024/01/07 08:06:24;;;;;;;9.90;6.15;;;;;;;;;;5126221;28;20016;-61
2024/01/07 08:08:50;;;;;;;14.80;6.28;;;;;;;;;;5126172;28;20032;-59
2024/01/07 08:11:18;;;;;;;8.48;6.10;;;;;;;;;;5126117;28;20016;-56
2024/01/07 08:13:44;;;;;;;9.48;6.30;;;;;;;;;;5126259;28;20035;-57
2024/01/07 08:16:11;;;;;;;9.35;6.15;;;;;;;;;;5125987;28;20061;-58
2024/01/07 08:18:37;;;;;;;6.90;5.68;;;;;;;;;;5126070;28;20027;-55
2024/01/07 08:21:04;;;;;;;8.65;6.28;;;;;;;;;;5126609;28;20085;-58
2024/01/07 08:23:31;;;;;;;10.88;6.25;;;;;;;;;;5127655;28;20083;-59
2024/01/07 08:25:57;;;;;;;7.90;6.00;;;;;;;;;;5124959;28;20249;-58
2024/01/07 08:28:24;;;;;;;7.90;6.30;;;;;;;;;;5126371;28;20055;-55
2024/01/07 08:30:53;;;;;;;9.02;6.43;;;;;;;;;;5127352;28;20046;-54
2024/01/07 08:33:19;;;;;;;9.90;6.70;;;;;;;;;;5126960;28;20326;-59
2024/01/07 08:35:46;;;;;;;8.60;6.38;;;;;;;;;;5127170;28;20335;-60
2024/01/07 08:38:12;;;;;;;8.68;6.82;;;;;;;;;;5127095;28;20256;-59
2024/01/07 08:40:40;;;;;;;6.65;5.45;;;;;;;;;;5127490;28;20223;-55
2024/01/07 08:43:06;;;;;;;9.52;6.13;;;;;;;;;;5127288;28;20073;-55
2024/01/07 08:45:33;;;;;;;7.13;5.85;;;;;;;;;;5126393;28;20264;-60
2024/01/07 08:47:59;;;;;;;7.32;5.65;;;;;;;;;;5126672;28;20020;-58
2024/01/07 08:50:26;;;;;;;6.15;5.60;;;;;;;;;;5124985;28;20019;-59
2024/01/07 08:52:53;;;;;;;6.45;5.85;;;;;;;;;;5124978;28;20012;-59
2024/01/07 08:55:19;;;;;;;8.32;5.72;;;;;;;;;;5125611;28;20235;-59
2024/01/07 08:57:48;;;;;;;9.80;6.35;;;;;;;;;;5125747;28;20315;-58
2024/01/07 09:00:15;;;;;;;8.27;5.82;;;;;;;;;;5127149;28;20034;-59
2024/01/07 09:02:42;;;;;;;12.02;6.32;;;;;;;;;;5126943;28;20319;-59
2024/01/07 09:05:09;;;;;;;9.65;5.60;;;;;;;;;;5126259;28;20076;-58
2024/01/07 09:07:35;;;;;;;12.48;6.03;;;;;;;;;;5125094;28;20020;-60
2024/01/07 09:10:02;;;;;;;9.18;6.00;;;;;;;;;;5125147;28;20096;-60
2024/01/07 09:12:29;;;;;;;8.18;5.95;;;;;;;;;;5125392;28;20065;-60
2024/01/07 09:14:55;;;;;;;7.95;6.05;;;;;;;;;;5125731;28;20023;-59
2024/01/07 09:17:22;;;;;;;9.07;5.82;;;;;;;;;;5125221;28;20086;-59
2024/01/07 09:19:49;;;;;;;7.95;6.53;;;;;;;;;;5126205;28;20051;-59
2024/01/07 09:22:15;;;;;;;10.40;6.20;;;;;;;;;;5126583;28;20083;-59
2024/01/07 09:24:42;;;;;;;9.80;6.28;;;;;;;;;;5127225;28;20043;-57
2024/01/07 09:27:08;;;;;;;9.10;5.97;;;;;;;;;;5126253;28;20084;-55
2024/01/07 09:29:35;;;;;;;8.23;5.63;;;;;;;;;;5126166;28;20031;-59
2024/01/07 09:32:01;;;;;;;8.02;6.28;;;;;;;;;;5126194;28;20034;-59
2024/01/07 09:34:28;;;;;;;10.85;6.55;;;;;;;;;;5126747;28;20095;-60
2024/01/07 09:36:55;;;;;;;14.05;6.60;;;;;;;;;;5126265;28;20023;-59
2024/01/07 09:39:21;;;;;;;10.38;6.18;;;;;;;;;;5126346;28;20023;-59
2024/01/07 09:41:48;;;;;;;11.00;6.55;;;;;;;;;;5126254;28;20031;-61
2024/01/07 09:44:14;;;;;;;12.23;6.43;;;;;;;;;;5126371;28;20048;-59
2024/01/07 09:46:42;;;;;;;8.85;6.15;;;;;;;;;;5125840;28;20020;-58
2024/01/07 09:49:09;;;;;;;9.45;6.38;;;;;;;;;;5126346;28;20031;-56
2024/01/07 09:51:37;;;;;;;10.65;6.32;;;;;;;;;;5126003;28;20019;-56
2024/01/07 09:54:04;;;;;;;11.10;6.13;;;;;;;;;;5125998;27;20091;-57
2024/01/07 09:56:37;;;;;;;8.80;6.00;;;;;;;;;;5125056;28;20016;-59
2024/01/07 09:59:03;;;;;;;8.60;6.30;;;;;;;;;;5125816;28;20028;-60
2024/01/07 10:01:30;;;;;;;7.55;6.25;;;;;;;;;;5125969;28;20030;-60
2024/01/07 10:03:57;;;;;;;10.82;7.60;;;;;;;;;;5126013;28;20035;-61
2024/01/07 10:06:24;;;;;;;18.65;8.88;;;;;;;;;;5125673;28;20329;-60
2024/01/07 10:08:50;;;;;;;17.23;8.10;;;;;;;;;;5125580;28;20032;-58
2024/01/07 10:11:17;;;;;;;13.18;7.68;;;;;;;;;;5125652;28;20015;-60
2024/01/07 10:13:47;;;;;;;16.23;7.10;;;;;;;;;;5125580;28;20031;-57
2024/01/07 10:16:14;;;;;;;14.05;7.28;;;;;;;;;;5125679;28;20074;-59
2024/01/07 10:18:41;;;;;;;12.27;6.97;;;;;;;;;;5125402;28;20050;-59
2024/01/07 10:21:07;;;;;;;10.20;7.20;;;;;;;;;;5125404;28;20342;-58
2024/01/07 10:23:34;;;;;;;9.80;6.97;;;;;;;;;;5125221;28;20043;-54
2024/01/07 10:26:02;;;;;;;12.90;6.82;;;;;;;;;;5125625;28;20039;-54
2024/01/07 10:28:29;;;;;;;13.38;6.30;;;;;;;;;;5125153;28;20096;-56
2024/01/07 10:30:55;;;;;;;9.68;6.15;;;;;;;;;;5125028;28;20220;-56
2024/01/07 10:33:25;;;;;;;10.70;6.00;;;;;;;;;;5125158;28;20026;-54
2024/01/07 10:35:58;;;;;;;12.23;6.85;;;;;;;;;;5125073;28;20016;-55
2024/01/07 10:38:24;;;;;;;14.20;6.18;;;;;;;;;;5125236;28;20095;-54
2024/01/07 10:40:53;;;;;;;11.20;6.38;;;;;;;;;;5125142;28;20020;-57
2024/01/07 10:43:20;;;;;;;9.15;6.15;;;;;;;;;;5124957;28;20032;-61
2024/01/07 10:45:51;;;;;;;19.48;6.50;;;;;;;;;;5125285;28;20286;-59
2024/01/07 10:48:19;;;;;;;15.07;6.80;;;;;;;;;;5125013;28;20184;-64
2024/01/07 10:50:50;;;;;;;11.85;7.00;;;;;;;;;;5124707;28;20079;-63
2024/01/07 10:53:19;;;;;;;15.25;6.50;;;;;;;;;;5124793;28;20023;-63
2024/01/07 10:55:49;;;;;;;30.27;7.38;;;;;;;;;;5124825;28;20022;-63
2024/01/07 10:58:16;;;;;;;19.52;6.88;;;;;;;;;;5124595;28;20191;-63
2024/01/07 11:00:43;;;;;;;23.48;7.07;;;;;;;;;;5124773;28;20100;-63
2024/01/07 11:03:23;;;;;;;15.80;6.85;;;;;;;;;;5124619;28;20030;-55
2024/01/07 11:05:53;;;;;;;13.60;6.88;;;;;;;;;;5124751;28;20027;-60
2024/01/07 11:08:55;;;;;;;31.45;7.18;;;;;;;;;;5124194;28;20099;-57
2024/01/07 11:11:33;;;;;;;10.57;5.90;;;;;;;;;;5042118;28;20041;-59
2024/01/07 11:14:01;;;;;;;18.38;7.20;;;;;;;;;;5115293;28;20035;-59
2024/01/07 11:16:40;;;;;;;13.15;6.68;;;;;;;;;;5124396;28;20024;-60
2024/01/07 11:19:07;;;;;;;17.20;6.60;;;;;;;;;;5124508;28;20023;-56
2024/01/07 11:21:34;;;;;;;12.40;6.38;;;;;;;;;;5124514;28;20047;-60
2024/01/07 11:24:01;;;;;;;14.02;6.70;;;;;;;;;;5124619;28;20094;-59
2024/01/07 11:26:32;;;;;;;14.65;6.80;;;;;;;;;;5124274;28;20016;-58
2024/01/07 11:29:01;;;;;;;14.10;6.75;;;;;;;;;;5124339;28;20031;-59
2024/01/07 11:31:47;;;;;;;19.05;7.22;;;;;;;;;;5124185;28;20045;-55
2024/01/07 11:34:33;;;;;;;23.35;7.20;;;;;;;;;;5123807;28;20016;-59
2024/01/07 11:37:00;;;;;;;21.05;7.50;;;;;;;;;;5121374;28;20016;-57
2024/01/07 11:39:26;;;;;;;15.98;7.18;;;;;;;;;;5124408;28;20334;-56
2024/01/07 11:41:53;;;;;;;19.90;7.55;;;;;;;;;;5124029;28;20337;-56
2024/01/07 11:44:20;;;;;;;16.52;6.82;;;;;;;;;;5124491;28;20091;-55
2024/01/07 11:46:48;;;;;;;18.30;6.88;;;;;;;;;;5124346;28;20019;-60
2024/01/07 11:49:15;;;;;;;17.50;7.00;;;;;;;;;;5124951;28;20027;-56
2024/01/07 11:51:41;;;;;;;19.30;7.18;;;;;;;;;;5124241;28;20053;-55
2024/01/07 11:54:08;;;;;;;22.95;6.85;;;;;;;;;;5124332;28;20011;-54
2024/01/07 11:56:35;;;;;;;22.75;6.70;;;;;;;;;;5124232;28;20249;-61
2024/01/07 11:59:01;;;;;;;20.65;6.93;;;;;;;;;;5124136;28;20023;-58
2024/01/07 12:01:28;;;;;;;21.58;6.00;;;;;;;;;;5124218;28;20027;-55
2024/01/07 12:03:55;;;;;;;16.20;6.78;;;;;;;;;;5124408;27;20023;-58
2024/01/07 12:06:21;;;;;;;15.30;6.43;;;;;;;;;;5124099;28;20050;-53
2024/01/07 12:08:48;;;;;;;13.02;6.75;;;;;;;;;;5124017;28;20019;-54
2024/01/07 12:11:15;;;;;;;22.58;6.88;;;;;;;;;;5124147;28;20019;-54
2024/01/07 12:13:43;;;;;;;21.92;6.82;;;;;;;;;;5124323;28;20020;-54
2024/01/07 12:16:10;;;;;;;22.10;6.90;;;;;;;;;;5123948;28;20316;-62
2024/01/07 12:18:43;;;;;;;21.83;7.45;;;;;;;;;;5124024;28;20242;-54
2024/01/07 12:21:09;;;;;;;14.65;7.13;;;;;;;;;;5125654;28;20027;-56
2024/01/07 12:23:36;;;;;;;16.13;7.07;;;;;;;;;;5127249;28;20031;-57
2024/01/07 12:26:10;;;;;;;20.58;7.38;;;;;;;;;;5127413;28;20023;-53
2024/01/07 12:28:37;;;;;;;19.40;7.15;;;;;;;;;;5126981;28;20043;-58
2024/01/07 12:31:04;;;;;;;16.70;6.97;;;;;;;;;;5127243;28;20023;-54
2024/01/07 12:33:33;;;;;;;15.50;6.88;;;;;;;;;;5127576;28;20012;-55
2024/01/07 12:36:00;;;;;;;19.17;6.93;;;;;;;;;;5127252;28;20027;-56
2024/01/07 12:38:27;;;;;;;12.82;6.47;;;;;;;;;;5127496;28;20019;-52
2024/01/07 12:40:54;;;;;;;12.15;6.35;;;;;;;;;;5127364;28;20315;-58
2024/01/07 12:43:21;;;;;;;19.20;6.30;;;;;;;;;;5127115;28;20272;-57
2024/01/07 12:45:51;;;;;;;17.92;7.65;;;;;;;;;;5127089;28;20064;-56
2024/01/07 12:48:17;;;;;;;21.20;7.65;;;;;;;;;;5124070;28;20023;-55
2024/01/07 12:50:44;;;;;;;20.60;7.80;;;;;;;;;;5126588;27;20083;-56
2024/01/07 12:53:11;;;;;;;16.55;6.95;;;;;;;;;;5126490;28;20015;-53
2024/01/07 12:55:37;;;;;;;15.60;6.88;;;;;;;;;;5126923;28;20047;-55
2024/01/07 12:58:04;;;;;;;16.75;6.70;;;;;;;;;;5126545;28;20320;-54
2024/01/07 13:00:30;;;;;;;17.15;6.63;;;;;;;;;;5126976;28;20035;-53
2024/01/07 13:02:57;;;;;;;21.92;7.38;;;;;;;;;;5126377;28;20041;-54
2024/01/07 13:05:24;;;;;;;15.88;6.72;;;;;;;;;;5126485;28;20027;-54
2024/01/07 13:07:50;;;;;;;17.13;6.65;;;;;;;;;;5126629;28;20300;-56
2024/01/07 13:10:17;;;;;;;19.17;6.65;;;;;;;;;;5126328;28;20082;-56
2024/01/07 13:12:43;;;;;;;24.85;7.18;;;;;;;;;;5126745;27;20078;-56
2024/01/07 13:15:10;;;;;;;34.15;6.82;;;;;;;;;;5123971;28;20181;-55
2024/01/07 13:17:37;;;;;;;30.13;7.03;;;;;;;;;;5105408;28;20047;-55
2024/01/07 13:20:06;;;;;;;37.92;7.45;;;;;;;;;;5105486;28;20110;-52
2024/01/07 13:22:34;;;;;;;24.35;8.90;;;;;;;;;;5113873;28;20219;-60
2024/01/07 13:25:01;;;;;;;24.98;8.20;;;;;;;;;;5127084;28;20086;-60
2024/01/07 13:27:27;;;;;;;23.00;7.93;;;;;;;;;;5119787;28;20044;-60
2024/01/07 13:29:54;;;;;;;16.15;7.35;;;;;;;;;;5106216;28;20031;-55
2024/01/07 13:32:21;;;;;;;16.60;7.13;;;;;;;;;;5105039;28;20020;-59
2024/01/07 13:34:48;;;;;;;15.15;8.00;;;;;;;;;;5103687;28;20084;-61
2024/01/07 13:37:14;;;;;;;14.52;6.95;;;;;;;;;;5103680;28;20035;-56
2024/01/07 13:39:41;;;;;;;11.55;6.63;;;;;;;;;;5104438;28;20072;-62
2024/01/07 13:42:08;;;;;;;14.95;6.82;;;;;;;;;;5104007;28;20047;-61
2024/01/07 13:44:34;;;;;;;18.38;7.28;;;;;;;;;;5104208;28;20065;-55
2024/01/07 13:47:01;;;;;;;15.35;6.82;;;;;;;;;;5103784;28;20039;-55
2024/01/07 13:49:28;;;;;;;21.15;7.60;;;;;;;;;;5105886;28;20034;-55
2024/01/07 13:51:55;;;;;;;14.10;6.55;;;;;;;;;;5105720;28;20028;-55
2024/01/07 13:54:21;;;;;;;15.10;6.95;;;;;;;;;;5105660;28;20040;-55
2024/01/07 13:56:48;;;;;;;15.70;6.50;;;;;;;;;;5105447;28;20024;-56
2024/01/07 13:59:17;;;;;;;14.32;6.90;;;;;;;;;;5105542;28;20020;-60
2024/01/07 14:01:44;;;;;;;15.73;7.30;;;;;;;;;;5105316;28;20028;-57
2024/01/07 14:04:10;;;;;;;16.92;8.20;;;;;;;;;;5105539;28;20020;-56
2024/01/07 14:06:37;;;;;;;18.83;8.23;;;;;;;;;;5105054;28;20030;-59
2024/01/07 14:09:06;;;;;;;18.63;9.20;;;;;;;;;;5105307;28;20057;-57
2024/01/07 14:11:32;;;;;;;23.33;9.13;;;;;;;;;;5105137;28;20031;-59
2024/01/07 14:13:59;;;;;;;15.50;9.27;;;;;;;;;;5105374;28;20027;-60
2024/01/07 14:16:25;;;;;;;16.27;9.05;;;;;;;;;;5105183;28;20027;-62
2024/01/07 14:18:52;;;;;;;16.90;8.60;;;;;;;;;;5105232;28;20016;-62
2024/01/07 14:21:19;;;;;;;17.90;8.70;;;;;;;;;;5104888;28;20028;-56
2024/01/07 14:23:45;;;;;;;15.57;8.88;;;;;;;;;;5105049;28;20024;-55
2024/01/07 14:26:12;;;;;;;19.05;8.70;;;;;;;;;;5104896;28;20054;-55
2024/01/07 14:28:38;;;;;;;14.00;8.27;;;;;;;;;;5104768;28;20119;-57
2024/01/07 14:31:05;;;;;;;14.05;9.02;;;;;;;;;;5104745;28;20070;-56